sensor_id;sensor_type;location;lat;lon;timestamp;pressure;altitude;pressure_sealevel;temperature;humidity
39341;BME280;25059;52.132;21.062;2023-07-08T05:34:34;100963.28;;;19.94;100.00
39341;BME280;25059;52.132;21.062;2023-07-08T05:37:21;100965.31;;;20.03;96.42
39341;BME280;25059;52.132;21.062;2023-07-08T05:40:09;100962.56;;;20.17;98.35
39341;BME280;25059;52.132;21.062;2023-07-08T05:42:54;100966.22;;;20.42;95.55
39341;BME280;25059;52.132;21.062;2023-07-08T05:45:38;100941.22;;;20.43;95.97
39341;BME280;25059;52.132;21.062;2023-07-08T05:48:23;100958.72;;;21.09;90.92
39341;BME280;25059;52.132;21.062;2023-07-08T05:51:07;100956.22;;;21.31;87.29
39341;BME280;25059;52.132;21.062;2023-07-08T05:53:51;100958.84;;;21.44;86.12
39341;BME280;25059;52.132;21.062;2023-07-08T05:56:35;100954.53;;;21.17;87.99
39341;BME280;25059;52.132;21.062;2023-07-08T05:59:20;100949.06;;;21.19;86.50
39341;BME280;25059;52.132;21.062;2023-07-08T06:02:04;100955.84;;;21.12;81.49
39341;BME280;25059;52.132;21.062;2023-07-08T06:04:50;100957.19;;;21.30;79.74
39341;BME280;25059;52.132;21.062;2023-07-08T06:07:34;100949.00;;;21.44;77.69
39341;BME280;25059;52.132;21.062;2023-07-08T06:10:18;100945.63;;;21.53;79.45
39341;BME280;25059;52.132;21.062;2023-07-08T06:13:03;100941.91;;;21.67;79.29
39341;BME280;25059;52.132;21.062;2023-07-08T06:19:16;100937.22;;;22.39;70.45
39341;BME280;25059;52.132;21.062;2023-07-08T06:22:01;100939.66;;;22.42;69.14
39341;BME280;25059;52.132;21.062;2023-07-08T06:24:46;100942.19;;;22.33;69.86
39341;BME280;25059;52.132;21.062;2023-07-08T06:27:32;100941.97;;;22.36;69.30
39341;BME280;25059;52.132;21.062;2023-07-08T06:30:17;100939.53;;;22.44;66.27
39341;BME280;25059;52.132;21.062;2023-07-08T06:33:01;100933.81;;;22.48;67.62
39341;BME280;25059;52.132;21.062;2023-07-08T06:35:45;100933.44;;;22.64;64.26
39341;BME280;25059;52.132;21.062;2023-07-08T06:38:30;100932.47;;;22.87;64.19
39341;BME280;25059;52.132;21.062;2023-07-08T06:41:14;100925.59;;;23.06;64.74
39341;BME280;25059;52.132;21.062;2023-07-08T06:44:01;100928.44;;;22.93;65.32
39341;BME280;25059;52.132;21.062;2023-07-08T06:46:45;100923.53;;;23.09;66.08
39341;BME280;25059;52.132;21.062;2023-07-08T06:49:30;100927.41;;;23.16;65.90
39341;BME280;25059;52.132;21.062;2023-07-08T06:52:14;100924.94;;;23.25;63.83
39341;BME280;25059;52.132;21.062;2023-07-08T06:55:01;100929.91;;;23.72;58.64
39341;BME280;25059;52.132;21.062;2023-07-08T06:57:47;100918.16;;;23.73;59.18
39341;BME280;25059;52.132;21.062;2023-07-08T07:00:31;100917.63;;;23.59;58.94
39341;BME280;25059;52.132;21.062;2023-07-08T07:03:15;100915.94;;;23.58;56.09
39341;BME280;25059;52.132;21.062;2023-07-08T07:06:00;100895.31;;;23.58;56.22
39341;BME280;25059;52.132;21.062;2023-07-08T07:08:44;100909.53;;;23.70;55.08
39341;BME280;25059;52.132;21.062;2023-07-08T07:11:29;100906.00;;;23.90;54.84
39341;BME280;25059;52.132;21.062;2023-07-08T07:14:13;100901.66;;;23.99;52.08
39341;BME280;25059;52.132;21.062;2023-07-08T07:16:58;100903.16;;;24.12;51.86
39341;BME280;25059;52.132;21.062;2023-07-08T07:19:43;100907.94;;;24.30;51.33
39341;BME280;25059;52.132;21.062;2023-07-08T07:22:28;100904.66;;;24.26;51.68
39341;BME280;25059;52.132;21.062;2023-07-08T07:25:12;100907.44;;;24.45;50.39
39341;BME280;25059;52.132;21.062;2023-07-08T07:27:57;100904.75;;;24.45;50.68
39341;BME280;25059;52.132;21.062;2023-07-08T07:30:43;100899.00;;;24.60;48.37
39341;BME280;25059;52.132;21.062;2023-07-08T07:33:29;100901.47;;;24.82;48.54
39341;BME280;25059;52.132;21.062;2023-07-08T07:36:14;100901.72;;;24.69;48.60
39341;BME280;25059;52.132;21.062;2023-07-08T07:38:59;100906.41;;;24.77;48.05
39341;BME280;25059;52.132;21.062;2023-07-08T07:41:43;100897.50;;;24.76;47.05
39341;BME280;25059;52.132;21.062;2023-07-08T07:44:28;100893.81;;;24.77;46.49
39341;BME280;25059;52.132;21.062;2023-07-08T07:47:12;100897.81;;;24.93;45.52
39341;BME280;25059;52.132;21.062;2023-07-08T07:49:57;100899.25;;;24.97;45.03
39341;BME280;25059;52.132;21.062;2023-07-08T07:52:43;100901.69;;;25.09;44.04
39341;BME280;25059;52.132;21.062;2023-07-08T07:55:28;100898.59;;;25.14;43.37
39341;BME280;25059;52.132;21.062;2023-07-08T07:58:14;100896.31;;;25.19;43.57
39341;BME280;25059;52.132;21.062;2023-07-08T08:00:59;100893.50;;;25.30;43.24
39341;BME280;25059;52.132;21.062;2023-07-08T08:03:43;100891.78;;;25.49;42.27
39341;BME280;25059;52.132;21.062;2023-07-08T08:06:28;100890.81;;;25.50;41.91
39341;BME280;25059;52.132;21.062;2023-07-08T08:09:13;100887.69;;;25.44;41.50
39341;BME280;25059;52.132;21.062;2023-07-08T08:11:58;100884.69;;;25.57;41.57
39341;BME280;25059;52.132;21.062;2023-07-08T08:14:42;100890.78;;;25.59;41.57
39341;BME280;25059;52.132;21.062;2023-07-08T08:17:27;100886.00;;;25.72;41.33
39341;BME280;25059;52.132;21.062;2023-07-08T08:20:11;100878.75;;;25.83;41.74
39341;BME280;25059;52.132;21.062;2023-07-08T08:22:56;100883.81;;;25.95;42.39
39341;BME280;25059;52.132;21.062;2023-07-08T08:25:40;100884.72;;;26.23;41.21
39341;BME280;25059;52.132;21.062;2023-07-08T08:28:25;100892.81;;;26.33;39.80
39341;BME280;25059;52.132;21.062;2023-07-08T08:31:09;100888.22;;;26.43;38.07
39341;BME280;25059;52.132;21.062;2023-07-08T08:33:54;100896.13;;;26.54;39.07
39341;BME280;25059;52.132;21.062;2023-07-08T08:36:38;100896.72;;;26.48;37.46
39341;BME280;25059;52.132;21.062;2023-07-08T08:39:23;100897.06;;;26.26;38.18
39341;BME280;25059;52.132;21.062;2023-07-08T08:42:12;100894.22;;;26.37;37.73
39341;BME280;25059;52.132;21.062;2023-07-08T08:44:58;100892.06;;;26.41;37.74
39341;BME280;25059;52.132;21.062;2023-07-08T08:47:44;100901.00;;;26.31;36.96
39341;BME280;25059;52.132;21.062;2023-07-08T08:53:14;100905.09;;;26.45;37.16
39341;BME280;25059;52.132;21.062;2023-07-08T08:56:03;100892.72;;;26.52;36.68
39341;BME280;25059;52.132;21.062;2023-07-08T09:01:37;100906.72;;;26.65;36.38
39341;BME280;25059;52.132;21.062;2023-07-08T09:04:26;100888.06;;;26.72;36.32
39341;BME280;25059;52.132;21.062;2023-07-08T09:07:13;100894.25;;;26.82;35.43
39341;BME280;25059;52.132;21.062;2023-07-08T09:10:03;100883.41;;;26.92;35.00
39341;BME280;25059;52.132;21.062;2023-07-08T09:12:48;100893.09;;;27.12;35.29
39341;BME280;25059;52.132;21.062;2023-07-08T09:15:34;100896.56;;;27.05;35.47
39341;BME280;25059;52.132;21.062;2023-07-08T09:18:21;100890.16;;;27.23;34.95
39341;BME280;25059;52.132;21.062;2023-07-08T09:21:19;100896.50;;;27.32;34.36
39341;BME280;25059;52.132;21.062;2023-07-08T09:24:08;100897.56;;;27.39;34.31
39341;BME280;25059;52.132;21.062;2023-07-08T09:26:54;100890.94;;;27.16;33.95
39341;BME280;25059;52.132;21.062;2023-07-08T09:29:41;100892.94;;;27.31;33.72
39341;BME280;25059;52.132;21.062;2023-07-08T09:32:26;100895.34;;;27.70;34.29
39341;BME280;25059;52.132;21.062;2023-07-08T09:35:16;100901.81;;;27.77;33.44
39341;BME280;25059;52.132;21.062;2023-07-08T09:38:02;100893.63;;;27.69;33.55
39341;BME280;25059;52.132;21.062;2023-07-08T09:40:51;100894.47;;;27.70;34.08
39341;BME280;25059;52.132;21.062;2023-07-08T09:43:38;100883.75;;;28.04;33.74
39341;BME280;25059;52.132;21.062;2023-07-08T09:46:22;100877.16;;;28.32;33.18
39341;BME280;25059;52.132;21.062;2023-07-08T09:49:23;100870.47;;;28.44;33.11
39341;BME280;25059;52.132;21.062;2023-07-08T09:52:11;100877.41;;;28.47;32.91
39341;BME280;25059;52.132;21.062;2023-07-08T09:54:56;100879.50;;;28.61;33.08
39341;BME280;25059;52.132;21.062;2023-07-08T09:57:41;100868.28;;;28.98;32.55
39341;BME280;25059;52.132;21.062;2023-07-08T10:00:28;100868.72;;;29.52;31.62
39341;BME280;25059;52.132;21.062;2023-07-08T10:03:17;100872.78;;;29.48;30.94
39341;BME280;25059;52.132;21.062;2023-07-08T10:09:34;100877.59;;;28.19;32.42
39341;BME280;25059;52.132;21.062;2023-07-08T10:12:18;100881.31;;;28.52;32.26
39341;BME280;25059;52.132;21.062;2023-07-08T10:15:12;100876.69;;;28.79;32.04
39341;BME280;25059;52.132;21.062;2023-07-08T10:18:00;100871.22;;;29.21;32.16
39341;BME280;25059;52.132;21.062;2023-07-08T10:26:42;100859.16;;;30.52;30.20
39341;BME280;25059;52.132;21.062;2023-07-08T10:35:03;100851.09;;;35.93;23.34
39341;BME280;25059;52.132;21.062;2023-07-08T10:55:32;100848.63;;;38.56;19.19
39341;BME280;25059;52.132;21.062;2023-07-08T11:04:19;100841.84;;;34.20;22.93
39341;BME280;25059;52.132;21.062;2023-07-08T11:10:05;100825.91;;;36.87;20.39
39341;BME280;25059;52.132;21.062;2023-07-08T11:12:54;100849.38;;;39.99;18.23
39341;BME280;25059;52.132;21.062;2023-07-08T11:21:15;100827.50;;;38.86;18.14
39341;BME280;25059;52.132;21.062;2023-07-08T11:24:12;100830.41;;;39.33;17.98
39341;BME280;25059;52.132;21.062;2023-07-08T11:27:02;100820.41;;;39.97;17.64
39341;BME280;25059;52.132;21.062;2023-07-08T11:32:34;100834.59;;;39.24;17.64
39341;BME280;25059;52.132;21.062;2023-07-08T11:35:23;100817.00;;;39.36;17.37
39341;BME280;25059;52.132;21.062;2023-07-08T11:38:13;100811.53;;;38.65;18.18
39341;BME280;25059;52.132;21.062;2023-07-08T11:43:47;100806.56;;;36.76;19.48
39341;BME280;25059;52.132;21.062;2023-07-08T11:46:33;100820.31;;;37.82;18.99
39341;BME280;25059;52.132;21.062;2023-07-08T11:49:18;100814.88;;;35.19;21.20
39341;BME280;25059;52.132;21.062;2023-07-08T11:52:02;100820.03;;;37.65;19.29
39341;BME280;25059;52.132;21.062;2023-07-08T11:54:47;100810.22;;;40.49;17.09
39341;BME280;25059;52.132;21.062;2023-07-08T11:57:40;100806.41;;;40.79;16.79
39341;BME280;25059;52.132;21.062;2023-07-08T12:00:29;100796.41;;;41.73;15.74
